createdAt,value
2017-11-18T00:01:53.392Z,11.37
2017-11-18T00:04:20.697Z,8.93
2017-11-18T00:06:48.023Z,9.30
2017-11-18T00:09:15.371Z,8.60
2017-11-18T00:11:42.761Z,11.33
2017-11-18T00:14:10.077Z,8.20
2017-11-18T00:16:37.412Z,9.53
2017-11-18T00:19:04.737Z,8.17
2017-11-18T00:21:32.089Z,7.40
2017-11-18T00:23:59.410Z,7.27
2017-11-18T00:26:26.773Z,7.87
2017-11-18T00:28:54.135Z,5.87
2017-11-18T00:31:21.484Z,6.77
2017-11-18T00:33:48.804Z,6.40
2017-11-18T00:36:16.118Z,7.20
2017-11-18T00:38:43.445Z,7.50
2017-11-18T00:41:10.790Z,7.80
2017-11-18T00:43:38.140Z,7.43
2017-11-18T00:46:05.487Z,9.97
2017-11-18T00:48:32.801Z,5.83
2017-11-18T00:51:00.118Z,6.50
2017-11-18T00:53:27.460Z,6.30
2017-11-18T00:55:54.803Z,6.47
2017-11-18T00:58:22.166Z,7.73
2017-11-18T01:00:49.474Z,7.27
2017-11-18T01:03:16.810Z,7.87
2017-11-18T01:05:44.113Z,8.20
2017-11-18T01:08:11.430Z,7.47
2017-11-18T01:10:38.741Z,6.57
2017-11-18T01:13:06.096Z,6.97
2017-11-18T01:15:33.445Z,7.10
2017-11-18T01:18:00.794Z,8.20
2017-11-18T01:20:28.154Z,6.97
2017-11-18T01:22:55.471Z,7.23
2017-11-18T01:25:22.789Z,6.67
2017-11-18T01:27:50.107Z,6.53
2017-11-18T01:30:17.471Z,6.50
2017-11-18T01:32:44.805Z,6.50
2017-11-18T01:35:12.138Z,7.33
2017-11-18T01:37:39.453Z,8.57
2017-11-18T01:40:06.798Z,6.37
2017-11-18T01:42:34.118Z,7.33
2017-11-18T01:45:01.434Z,6.93
2017-11-18T01:47:28.745Z,7.07
2017-11-18T01:49:56.094Z,6.67
2017-11-18T01:52:23.446Z,7.37
2017-11-18T01:54:50.833Z,6.60
2017-11-18T01:57:18.146Z,6.63
2017-11-18T01:59:45.504Z,6.13
2017-11-18T02:02:18.715Z,7.10
2017-11-18T02:04:46.038Z,6.53
2017-11-18T02:07:13.342Z,6.17
2017-11-18T02:09:40.653Z,7.00
2017-11-18T02:12:07.998Z,5.90
2017-11-18T02:14:35.312Z,6.37
2017-11-18T02:17:02.651Z,7.40
2017-11-18T02:21:56.713Z,6.63
2017-11-18T02:24:30.007Z,6.15
2017-11-18T02:26:57.339Z,6.50
2017-11-18T02:29:24.647Z,6.10
2017-11-18T02:31:51.982Z,6.50
2017-11-18T02:34:19.310Z,6.20
2017-11-18T02:36:46.638Z,6.30
2017-11-18T02:39:13.948Z,6.37
2017-11-18T02:41:41.290Z,7.93
2017-11-18T02:44:09.443Z,5.57
2017-11-18T02:46:36.760Z,6.07
2017-11-18T02:49:04.070Z,6.10
2017-11-18T02:51:31.403Z,5.93
2017-11-18T02:53:58.782Z,5.80
2017-11-18T02:56:26.121Z,6.70
2017-11-18T02:58:53.454Z,6.17
2017-11-18T03:01:20.774Z,5.83
2017-11-18T03:03:48.483Z,6.57
2017-11-18T03:06:15.821Z,6.33
2017-11-18T03:08:43.142Z,5.70
2017-11-18T03:11:10.449Z,5.47
2017-11-18T03:13:37.766Z,5.47
2017-11-18T03:16:05.073Z,5.73
2017-11-18T03:18:32.441Z,6.03
2017-11-18T03:20:59.746Z,6.13
2017-11-18T03:23:27.069Z,6.73
2017-11-18T03:25:54.670Z,6.33
2017-11-18T03:28:22.010Z,6.07
2017-11-18T03:30:49.345Z,5.83
2017-11-18T03:33:16.679Z,6.80
2017-11-18T03:35:44.005Z,6.63
2017-11-18T03:38:11.342Z,7.03
2017-11-18T03:40:38.665Z,6.03
2017-11-18T03:43:05.969Z,6.07
2017-11-18T03:45:33.317Z,6.33
2017-11-18T03:48:00.645Z,6.27
2017-11-18T03:50:27.979Z,5.70
2017-11-18T03:52:55.297Z,6.10
2017-11-18T03:55:22.630Z,5.60
2017-11-18T03:57:50.460Z,5.50
2017-11-18T04:00:17.803Z,5.67
2017-11-18T04:02:45.103Z,5.93
2017-11-18T04:05:15.481Z,5.43
2017-11-18T04:07:42.783Z,6.53
2017-11-18T04:10:10.122Z,5.67
2017-11-18T04:12:37.435Z,6.20
2017-11-18T04:15:04.783Z,6.07
2017-11-18T04:17:32.103Z,5.20
2017-11-18T04:19:59.434Z,6.23
2017-11-18T04:22:26.769Z,5.57
2017-11-18T04:24:54.090Z,5.20
2017-11-18T04:27:21.446Z,5.07
2017-11-18T04:29:48.765Z,5.30
2017-11-18T04:32:16.119Z,5.60
2017-11-18T04:34:43.455Z,5.40
2017-11-18T04:37:10.983Z,5.80
2017-11-18T04:39:38.278Z,6.13
2017-11-18T04:42:05.607Z,5.40
2017-11-18T04:44:32.913Z,6.47
2017-11-18T04:47:00.267Z,5.00
2017-11-18T04:49:27.592Z,5.30
2017-11-18T04:51:54.916Z,4.53
2017-11-18T04:54:22.246Z,6.13
2017-11-18T04:56:49.547Z,5.50
2017-11-18T04:59:16.861Z,5.00
2017-11-18T05:01:44.177Z,4.57
2017-11-18T05:04:11.532Z,5.20
2017-11-18T05:06:38.865Z,5.17
2017-11-18T05:09:06.190Z,5.03
2017-11-18T05:11:33.499Z,5.57
2017-11-18T05:14:00.868Z,5.33
2017-11-18T05:16:28.181Z,4.97
2017-11-18T05:18:55.502Z,5.27
2017-11-18T05:21:22.806Z,5.50
2017-11-18T05:23:50.129Z,5.43
2017-11-18T05:26:17.441Z,6.20
2017-11-18T05:28:44.764Z,5.33
2017-11-18T05:31:12.102Z,6.20
2017-11-18T05:33:39.420Z,6.10
2017-11-18T05:36:06.777Z,5.93
2017-11-18T05:38:34.090Z,5.50
2017-11-18T05:41:01.415Z,5.10
2017-11-18T05:43:28.734Z,4.97
2017-11-18T05:45:56.130Z,5.87
2017-11-18T05:48:23.519Z,5.80
2017-11-18T05:50:50.915Z,5.13
2017-11-18T05:53:18.818Z,6.00
2017-11-18T05:55:46.151Z,5.20
2017-11-18T05:58:13.480Z,5.63
2017-11-18T06:00:40.839Z,5.77
2017-11-18T06:03:08.129Z,5.57
2017-11-18T06:05:35.512Z,5.63
2017-11-18T06:08:02.817Z,5.50
2017-11-18T06:10:30.130Z,5.27
2017-11-18T06:12:57.454Z,5.13
2017-11-18T06:15:24.791Z,4.97
2017-11-18T06:17:52.157Z,5.13
2017-11-18T06:20:19.490Z,4.90
2017-11-18T06:22:46.809Z,5.47
2017-11-18T06:25:14.117Z,4.90
2017-11-18T06:27:41.471Z,6.30
2017-11-18T06:30:08.807Z,5.60
2017-11-18T06:32:36.134Z,6.40
2017-11-18T06:35:03.444Z,5.80
2017-11-18T06:37:30.786Z,5.90
2017-11-18T06:39:58.119Z,6.40
2017-11-18T06:42:25.477Z,5.80
2017-11-18T06:44:52.799Z,5.73
2017-11-18T06:47:20.125Z,6.57
2017-11-18T06:49:47.766Z,6.20
2017-11-18T06:52:15.094Z,5.67
2017-11-18T06:54:42.442Z,5.63
2017-11-18T06:57:10.098Z,6.10
2017-11-18T06:59:37.782Z,6.27
2017-11-18T07:02:05.083Z,5.70
2017-11-18T07:04:32.418Z,6.17
2017-11-18T07:06:59.727Z,6.03
2017-11-18T07:09:27.047Z,7.40
2017-11-18T07:11:54.341Z,8.03
2017-11-18T07:14:21.684Z,6.90
2017-11-18T07:16:48.998Z,7.20
2017-11-18T07:19:16.403Z,7.43
2017-11-18T07:21:43.708Z,7.40
2017-11-18T07:24:11.317Z,6.97
2017-11-18T07:26:38.659Z,6.60
2017-11-18T07:29:05.958Z,7.27
2017-11-18T07:31:33.303Z,7.40
2017-11-18T07:34:00.642Z,7.50
2017-11-18T07:36:27.958Z,7.20
2017-11-18T07:38:55.270Z,7.13
2017-11-18T07:41:22.662Z,7.80
2017-11-18T07:43:49.977Z,7.57
2017-11-18T07:46:17.315Z,7.03
2017-11-18T07:48:44.622Z,7.13
2017-11-18T07:51:11.947Z,7.97
2017-11-18T07:53:39.269Z,7.83
2017-11-18T07:56:06.590Z,7.10
2017-11-18T07:58:33.897Z,8.30
2017-11-18T08:01:01.239Z,7.27
2017-11-18T08:03:28.545Z,9.03
2017-11-18T08:05:55.870Z,9.13
2017-11-18T08:08:23.170Z,8.27
2017-11-18T08:10:50.473Z,7.83
2017-11-18T08:13:17.837Z,7.30
2017-11-18T08:15:45.149Z,8.10
2017-11-18T08:18:12.479Z,7.47
2017-11-18T08:20:39.782Z,8.37
2017-11-18T08:23:07.139Z,8.10
2017-11-18T08:25:34.486Z,8.70
2017-11-18T08:28:01.839Z,8.70
2017-11-18T08:30:29.160Z,8.63
2017-11-18T08:32:56.491Z,8.10
2017-11-18T08:35:24.082Z,8.83
2017-11-18T08:37:51.417Z,10.30
2017-11-18T08:40:18.722Z,8.43
2017-11-18T08:42:46.358Z,7.80
2017-11-18T08:45:13.656Z,9.00
2017-11-18T08:47:41.035Z,7.97
2017-11-18T08:50:08.462Z,8.17
2017-11-18T08:52:35.790Z,8.93
2017-11-18T08:55:03.118Z,8.50
2017-11-18T08:57:30.461Z,9.70
2017-11-18T08:59:57.937Z,9.57
2017-11-18T09:02:25.364Z,9.37
2017-11-18T09:04:52.689Z,10.37
2017-11-18T09:07:20.043Z,9.13
2017-11-18T09:09:47.713Z,11.73
2017-11-18T09:12:15.046Z,10.37
2017-11-18T09:14:42.397Z,10.20
2017-11-18T09:17:09.826Z,13.37
2017-11-18T09:19:37.149Z,10.47
2017-11-18T09:22:04.490Z,10.00
2017-11-18T09:24:31.838Z,11.60
2017-11-18T09:26:59.170Z,10.97
2017-11-18T09:29:26.563Z,11.23
2017-11-18T09:31:53.964Z,9.60
2017-11-18T09:34:21.285Z,9.93
2017-11-18T09:36:48.673Z,9.63
2017-11-18T09:39:16.000Z,10.23
2017-11-18T09:41:43.330Z,9.07
2017-11-18T09:44:11.608Z,9.67
2017-11-18T09:46:39.872Z,10.03
2017-11-18T09:49:07.228Z,9.17
2017-11-18T09:51:34.622Z,10.30
2017-11-18T09:54:01.962Z,9.43
2017-11-18T09:56:29.259Z,9.40
2017-11-18T09:58:56.608Z,8.53
2017-11-18T10:01:23.960Z,9.80
2017-11-18T10:03:51.301Z,10.80
2017-11-18T10:06:18.922Z,11.60
2017-11-18T10:08:54.166Z,10.43
2017-11-18T10:11:21.499Z,10.70
2017-11-18T10:13:54.632Z,11.00
2017-11-18T10:16:21.961Z,9.40
2017-11-18T10:18:49.279Z,10.87
2017-11-18T10:21:16.642Z,10.17
2017-11-18T10:23:43.974Z,9.80
2017-11-18T10:26:11.338Z,9.87
2017-11-18T10:28:38.678Z,9.77
2017-11-18T10:31:06.030Z,9.63
2017-11-18T10:33:33.359Z,10.00
2017-11-18T10:36:00.701Z,9.20
2017-11-18T10:38:28.049Z,9.50
2017-11-18T10:40:55.374Z,8.90
2017-11-18T10:43:22.709Z,8.40
2017-11-18T10:45:53.735Z,8.27
2017-11-18T10:48:24.806Z,7.30
2017-11-18T10:50:52.126Z,7.70
2017-11-18T10:53:19.446Z,6.30
2017-11-18T10:55:46.825Z,7.40
2017-11-18T10:58:14.146Z,6.63
2017-11-18T11:00:41.447Z,7.03
2017-11-18T11:03:08.771Z,7.40
2017-11-18T11:05:36.078Z,7.30
2017-11-18T11:08:03.432Z,7.70
2017-11-18T11:10:30.791Z,7.10
2017-11-18T11:12:58.141Z,8.17
2017-11-18T11:15:25.591Z,7.73
2017-11-18T11:17:52.885Z,6.33
2017-11-18T11:20:20.258Z,7.70
2017-11-18T11:22:47.614Z,7.47
2017-11-18T11:25:14.930Z,8.03
2017-11-18T11:27:42.237Z,7.10
2017-11-18T11:30:09.616Z,8.00
2017-11-18T11:32:36.953Z,6.70
2017-11-18T11:35:04.282Z,7.37
2017-11-18T11:37:31.630Z,6.90
2017-11-18T11:39:58.937Z,7.70
2017-11-18T11:42:26.337Z,7.90
2017-11-18T11:44:53.715Z,8.33
2017-11-18T11:47:21.020Z,7.70
2017-11-18T11:49:48.389Z,7.60
2017-11-18T11:52:15.695Z,7.30
2017-11-18T11:54:46.014Z,7.40
2017-11-18T11:57:13.322Z,8.23
2017-11-18T11:59:42.554Z,7.10
2017-11-18T12:02:09.862Z,7.30
2017-11-18T12:04:37.219Z,8.70
2017-11-18T12:07:04.532Z,6.60
2017-11-18T12:09:31.850Z,7.90
2017-11-18T12:11:59.175Z,7.00
2017-11-18T12:14:26.481Z,7.70
2017-11-18T12:16:53.814Z,8.03
2017-11-18T12:19:22.020Z,7.60
2017-11-18T12:21:49.375Z,7.13
2017-11-18T12:24:16.716Z,7.60
2017-11-18T12:26:44.048Z,9.10
2017-11-18T12:29:11.371Z,8.23
2017-11-18T12:31:38.706Z,6.57
2017-11-18T12:34:06.049Z,7.10
2017-11-18T12:36:33.394Z,5.80
2017-11-18T12:39:00.701Z,7.53
2017-11-18T12:41:28.032Z,6.37
2017-11-18T12:43:55.350Z,7.17
2017-11-18T12:46:22.678Z,6.67
2017-11-18T12:48:49.984Z,7.00
2017-11-18T12:51:17.366Z,6.67
2017-11-18T12:53:44.674Z,6.63
2017-11-18T12:56:15.146Z,6.67
2017-11-18T12:58:42.454Z,7.63
2017-11-18T13:01:09.757Z,6.90
2017-11-18T13:03:37.108Z,7.03
2017-11-18T13:06:04.707Z,7.60
2017-11-18T13:08:32.082Z,6.63
2017-11-18T13:11:01.327Z,7.03
2017-11-18T13:13:28.637Z,7.57
2017-11-18T13:15:55.995Z,6.57
2017-11-18T13:18:23.323Z,6.80
2017-11-18T13:20:50.633Z,7.23
2017-11-18T13:23:18.040Z,6.97
2017-11-18T13:25:45.429Z,7.30
2017-11-18T13:28:13.708Z,6.50
2017-11-18T13:30:41.138Z,6.87
2017-11-18T13:33:08.564Z,7.67
2017-11-18T13:35:35.908Z,6.53
2017-11-18T13:38:03.228Z,7.97
2017-11-18T13:40:30.570Z,6.40
2017-11-18T13:42:57.931Z,7.60
2017-11-18T13:45:25.256Z,8.50
2017-11-18T13:47:52.573Z,8.00
2017-11-18T13:50:20.091Z,8.50
2017-11-18T13:52:51.050Z,7.30
2017-11-18T13:55:18.372Z,8.10
2017-11-18T13:57:45.712Z,7.30
2017-11-18T14:00:13.080Z,8.30
2017-11-18T14:02:40.386Z,6.60
2017-11-18T14:05:07.720Z,6.43
2017-11-18T14:07:35.022Z,7.53
2017-11-18T14:10:02.454Z,7.20
2017-11-18T14:12:29.786Z,7.50
2017-11-18T14:14:57.236Z,6.57
2017-11-18T14:17:24.554Z,6.97
2017-11-18T14:19:51.909Z,6.87
2017-11-18T14:22:19.294Z,6.70
2017-11-18T14:24:46.623Z,6.40
2017-11-18T14:27:13.969Z,7.47
2017-11-18T14:29:41.321Z,8.00
2017-11-18T14:32:08.649Z,7.50
2017-11-18T14:34:35.964Z,6.53
2017-11-18T14:37:03.286Z,6.73
2017-11-18T14:39:30.741Z,6.77
2017-11-18T14:41:58.061Z,7.30
2017-11-18T14:44:25.363Z,7.80
2017-11-18T14:46:52.720Z,7.90
2017-11-18T14:49:20.059Z,7.63
2017-11-18T14:51:47.425Z,8.00
2017-11-18T14:54:14.837Z,5.70
2017-11-18T14:56:42.186Z,8.80
2017-11-18T14:59:09.515Z,7.73
2017-11-18T15:01:36.834Z,8.77
2017-11-18T15:04:04.626Z,6.27
2017-11-18T15:06:32.086Z,6.63
2017-11-18T15:08:59.385Z,7.80
2017-11-18T15:11:26.727Z,7.53
2017-11-18T15:13:54.058Z,7.73
2017-11-18T15:16:38.174Z,8.67
2017-11-18T15:19:11.245Z,9.40
2017-11-18T15:21:53.484Z,7.77
2017-11-18T15:24:26.561Z,8.60
2017-11-18T15:26:59.778Z,10.73
2017-11-18T15:29:30.934Z,10.60
2017-11-18T15:32:03.955Z,9.20
2017-11-18T15:34:37.066Z,10.43
2017-11-18T15:37:10.228Z,8.97
2017-11-18T15:39:37.539Z,10.10
2017-11-18T15:42:04.869Z,7.70
2017-11-18T15:44:37.945Z,8.13
2017-11-18T15:47:06.907Z,8.60
2017-11-18T15:49:40.025Z,8.97
2017-11-18T15:52:24.082Z,7.90
2017-11-18T15:54:57.143Z,8.13
2017-11-18T15:57:24.740Z,8.47
2017-11-18T15:59:56.926Z,6.93
2017-11-18T16:02:27.814Z,7.50
2017-11-18T16:04:55.695Z,8.50
2017-11-18T16:07:23.059Z,7.70
2017-11-18T16:09:50.483Z,7.57
2017-11-18T16:12:17.798Z,8.40
2017-11-18T16:14:45.672Z,9.90
2017-11-18T16:17:13.035Z,10.40
2017-11-18T16:19:40.360Z,9.90
2017-11-18T16:22:07.700Z,9.90
2017-11-18T16:24:35.022Z,8.13
2017-11-18T16:27:02.342Z,8.10
2017-11-18T16:29:29.675Z,10.70
2017-11-18T16:31:57.015Z,10.40
2017-11-18T16:34:24.335Z,12.27
2017-11-18T16:36:51.654Z,12.40
2017-11-18T16:39:19.002Z,12.03
2017-11-18T16:41:46.427Z,12.60
2017-11-18T16:44:13.775Z,12.00
2017-11-18T16:46:41.122Z,10.33
2017-11-18T16:49:08.473Z,13.20
2017-11-18T16:51:35.870Z,12.53
2017-11-18T16:54:03.194Z,11.63
2017-11-18T16:56:30.879Z,14.23
2017-11-18T16:58:58.192Z,12.90
2017-11-18T17:01:25.534Z,14.20
2017-11-18T17:03:52.913Z,13.77
2017-11-18T17:06:20.269Z,14.50
2017-11-18T17:08:47.609Z,14.60
2017-11-18T17:11:14.950Z,13.97
2017-11-18T17:13:42.291Z,11.47
2017-11-18T17:16:09.601Z,15.33
2017-11-18T17:18:36.929Z,13.43
2017-11-18T17:21:04.334Z,12.03
2017-11-18T17:23:31.638Z,13.60
2017-11-18T17:25:59.006Z,12.83
2017-11-18T17:28:26.352Z,12.80
2017-11-18T17:30:53.710Z,12.90
2017-11-18T17:35:47.796Z,12.50
2017-11-18T17:38:15.178Z,10.80
2017-11-18T17:40:42.518Z,12.30
2017-11-18T17:43:09.831Z,12.25
2017-11-18T17:45:37.184Z,11.40
2017-11-18T17:48:04.494Z,13.10
2017-11-18T17:50:31.822Z,16.40
2017-11-18T17:52:59.196Z,13.80
2017-11-18T17:55:26.524Z,12.87
2017-11-18T17:57:53.851Z,13.00
2017-11-18T18:00:21.170Z,12.60
2017-11-18T18:02:48.503Z,12.00
2017-11-18T18:05:15.833Z,13.50
2017-11-18T18:07:43.158Z,13.87
2017-11-18T18:10:10.466Z,14.40
2017-11-18T18:12:37.817Z,15.20
2017-11-18T18:15:05.147Z,16.20
2017-11-18T18:17:32.495Z,13.80
2017-11-18T18:19:59.789Z,13.70
2017-11-18T18:22:27.169Z,12.63
2017-11-18T18:24:54.469Z,13.97
2017-11-18T18:27:21.871Z,13.47
2017-11-18T18:29:49.185Z,13.20
2017-11-18T18:32:16.562Z,14.17
2017-11-18T18:34:47.390Z,13.13
2017-11-18T18:37:14.765Z,13.03
2017-11-18T18:39:42.081Z,11.30
2017-11-18T18:42:09.419Z,10.67
2017-11-18T18:44:36.819Z,12.03
2017-11-18T18:47:06.163Z,9.90
2017-11-18T18:49:33.585Z,10.50
2017-11-18T18:52:04.531Z,10.93
2017-11-18T18:54:31.862Z,11.27
2017-11-18T18:57:02.765Z,10.00
2017-11-18T18:59:30.090Z,10.47
2017-11-18T19:02:07.657Z,10.07
2017-11-18T19:04:34.971Z,9.63
2017-11-18T19:07:02.307Z,9.70
2017-11-18T19:09:29.613Z,10.30
2017-11-18T19:11:56.958Z,9.80
2017-11-18T19:14:24.289Z,10.40
2017-11-18T19:16:51.613Z,9.30
2017-11-18T19:19:19.030Z,9.80
2017-11-18T19:21:46.503Z,10.07
2017-11-18T19:24:13.801Z,10.67
2017-11-18T19:26:41.131Z,10.03
2017-11-18T19:29:08.458Z,10.03
2017-11-18T19:31:36.758Z,10.30
2017-11-18T19:34:04.063Z,9.50
2017-11-18T19:36:31.410Z,9.57
2017-11-18T19:38:58.799Z,7.70
2017-11-18T19:41:26.125Z,9.23
2017-11-18T19:43:53.505Z,9.63
2017-11-18T19:46:20.843Z,9.53
2017-11-18T19:48:48.229Z,10.60
2017-11-18T19:51:15.544Z,8.70
2017-11-18T19:53:42.893Z,9.53
2017-11-18T19:56:10.331Z,9.70
2017-11-18T19:58:37.717Z,6.13
2017-11-18T20:01:05.060Z,7.73
2017-11-18T20:03:32.735Z,9.80
2017-11-18T20:06:00.077Z,9.60
2017-11-18T20:08:27.426Z,8.73
2017-11-18T20:10:54.780Z,9.97
2017-11-18T20:13:22.182Z,10.20
2017-11-18T20:15:49.492Z,9.50
2017-11-18T20:18:16.842Z,9.20
2017-11-18T20:20:44.202Z,9.17
2017-11-18T20:23:11.586Z,10.37
2017-11-18T20:25:38.913Z,9.60
2017-11-18T20:28:06.278Z,10.10
2017-11-18T20:30:33.605Z,9.03
2017-11-18T20:33:00.942Z,8.80
2017-11-18T20:35:28.297Z,11.60
2017-11-18T20:37:55.690Z,9.73
2017-11-18T20:40:23.039Z,10.03
2017-11-18T20:42:50.405Z,9.50
2017-11-18T20:45:17.747Z,9.93
2017-11-18T20:47:45.162Z,8.77
2017-11-18T20:50:12.465Z,9.80
2017-11-18T20:52:39.890Z,8.53
2017-11-18T20:55:07.242Z,9.63
2017-11-18T20:57:34.565Z,8.00
2017-11-18T21:00:01.863Z,8.60
2017-11-18T21:02:31.132Z,8.83
2017-11-18T21:05:01.686Z,7.80
2017-11-18T21:07:32.327Z,9.33
2017-11-18T21:09:59.677Z,9.23
2017-11-18T21:12:26.998Z,8.87
2017-11-18T21:14:54.386Z,7.97
2017-11-18T21:17:21.698Z,8.13
2017-11-18T21:19:49.041Z,8.60
2017-11-18T21:22:16.350Z,8.20
2017-11-18T21:24:43.723Z,8.47
2017-11-18T21:27:11.051Z,8.90
2017-11-18T21:29:38.362Z,8.53
2017-11-18T21:32:05.692Z,7.77
2017-11-18T21:34:33.315Z,7.83
2017-11-18T21:37:00.642Z,8.10
2017-11-18T21:39:27.985Z,6.50
2017-11-18T21:41:55.687Z,8.67
2017-11-18T21:44:23.006Z,8.10
2017-11-18T21:46:50.353Z,8.27
2017-11-18T21:49:17.702Z,7.77
2017-11-18T21:51:45.087Z,8.73
2017-11-18T21:54:12.781Z,8.07
2017-11-18T21:56:40.475Z,8.20
2017-11-18T21:59:08.264Z,8.50
2017-11-18T22:01:35.697Z,8.97
2017-11-18T22:04:03.009Z,8.70
2017-11-18T22:06:30.322Z,8.40
2017-11-18T22:08:58.002Z,7.90
2017-11-18T22:11:25.390Z,7.63
2017-11-18T22:13:53.131Z,8.00
2017-11-18T22:16:20.454Z,8.00
2017-11-18T22:18:47.918Z,8.30
2017-11-18T22:21:15.244Z,9.60
2017-11-18T22:23:42.858Z,7.90
2017-11-18T22:26:10.170Z,7.97
2017-11-18T22:28:37.467Z,8.93
2017-11-18T22:31:04.810Z,8.20
2017-11-18T22:33:32.125Z,7.53
2017-11-18T22:35:59.457Z,7.40
2017-11-18T22:38:27.070Z,8.20
2017-11-18T22:40:54.755Z,7.80
2017-11-18T22:43:22.055Z,7.03
2017-11-18T22:45:49.453Z,7.07
2017-11-18T22:48:16.758Z,8.87
2017-11-18T22:50:44.100Z,7.07
2017-11-18T22:53:11.565Z,7.97
2017-11-18T22:55:38.982Z,8.57
2017-11-18T22:58:06.281Z,8.00
2017-11-18T23:00:41.198Z,7.97
2017-11-18T23:03:08.913Z,6.77
2017-11-18T23:05:36.615Z,7.73
2017-11-18T23:08:04.235Z,8.00
2017-11-18T23:10:31.913Z,7.37
2017-11-18T23:12:59.213Z,7.70
2017-11-18T23:15:26.541Z,8.43
2017-11-18T23:17:53.941Z,8.10
2017-11-18T23:20:21.637Z,7.13
2017-11-18T23:22:48.928Z,6.13
2017-11-18T23:25:16.267Z,7.80
2017-11-18T23:27:43.701Z,6.70
2017-11-18T23:30:11.026Z,7.53
2017-11-18T23:32:38.725Z,7.20
2017-11-18T23:35:06.361Z,6.67
2017-11-18T23:37:34.059Z,7.57
2017-11-18T23:40:01.591Z,6.07
2017-11-18T23:42:28.909Z,6.80
2017-11-18T23:44:56.211Z,6.90
2017-11-18T23:47:23.535Z,7.40
2017-11-18T23:49:51.425Z,6.80
2017-11-18T23:52:18.776Z,5.80
2017-11-18T23:54:46.090Z,7.00
2017-11-18T23:57:13.417Z,5.87
2017-11-18T23:59:41.238Z,5.60
